Doc Maynard — WDI3125 — position and weather

sailwx.info

Track history (hours):
 
Tides and Currents Weather Stations Pressure Air Temp Water Temp Dewpoint Dewpoint Depression Visibility Wind Speed Wind Dir Waves Ship Positions

Doc Maynard

Owner: King County Marine Division, Seattle, WA. More information available from US FCC via Universal Licensing System and Coast Guard Vessel Documentation Center.

Last reported at 2017-Oct-20 16:00 UTC. Time now 2017-Oct-20 16:18 UTC.
Position N 47°36' W 122°22'.

Length 31 m.

Type: Passenger vessel. MMSI: 338224000.

Date/timePositionNaut miles runAvg speedWind from/ knotsBaromVisibWave heightAir tempDewpointWater temp
2017-Oct-20 16:00N 47°36' W 122°22'1 1.8
2017-Oct-20 15:30N 47°35' W 122°23'0 0.0
2017-Oct-20 15:00N 47°35' W 122°23'2 1.8
2017-Oct-20 13:59N 47°36' W 122°20'0 0.0
2017-Oct-20 13:30N 47°36' W 122°20'0 0.0
2017-Oct-20 13:00N 47°36' W 122°20'0 0.3
2017-Oct-20 12:29N 47°36' W 122°20'0 0.0
2017-Oct-20 11:59N 47°36' W 122°20'0 0.0
2017-Oct-20 11:30N 47°36' W 122°20'0 0.0
2017-Oct-20 10:56N 47°36' W 122°20'0 0.0
2017-Oct-20 10:29N 47°36' W 122°20'0 0.0
2017-Oct-20 09:58N 47°36' W 122°20'0 0.0
2017-Oct-20 09:29N 47°36' W 122°20'0 0.0
2017-Oct-20 08:58N 47°36' W 122°20'0 0.0
2017-Oct-20 08:29N 47°36' W 122°20'0 0.0
2017-Oct-20 07:58N 47°36' W 122°20'0 0.0
2017-Oct-20 07:28N 47°36' W 122°20'0 0.0
2017-Oct-20 06:59N 47°36' W 122°20'0 0.0
2017-Oct-20 06:26N 47°36' W 122°20'0 0.0
2017-Oct-20 05:05N 47°36' W 122°20'0 0.0
2017-Oct-20 04:35N 47°36' W 122°20'0 0.1
2017-Oct-20 04:28N 47°36' W 122°20'0 0.0
2017-Oct-20 02:42N 47°36' W 122°20'0 0.0
2017-Oct-20 02:26N 47°36' W 122°20'2 4.3
2017-Oct-20 02:01N 47°35' W 122°23'1 2.8
2017-Oct-20 01:31N 47°36' W 122°21'1 0.9
2017-Oct-20 00:54N 47°36' W 122°20'1 3.2
2017-Oct-20 00:31N 47°36' W 122°22'1 1.2
2017-Oct-20 00:00N 47°35' W 122°23'1 2.3
2017-Oct-19 23:30N 47°36' W 122°21'1 1.2
2017-Oct-19 22:55N 47°36' W 122°20'0 0.1
2017-Oct-19 22:30N 47°36' W 122°20'2 3.6
2017-Oct-19 22:00N 47°35' W 122°23'2 3.5
2017-Oct-19 21:29N 47°36' W 122°20'2 3.8
2017-Oct-19 21:00N 47°35' W 122°23'2 3.2
2017-Oct-19 20:26N 47°36' W 122°20'2 4.3
2017-Oct-19 20:00N 47°35' W 122°23'2 3.6
2017-Oct-19 19:30N 47°36' W 122°20'2 3.6
2017-Oct-19 19:01N 47°35' W 122°23'2 3.6
2017-Oct-19 18:30N 47°36' W 122°20'2 3.7
2017-Oct-19 18:00N 47°35' W 122°23'2 3.6
2017-Oct-19 17:31N 47°36' W 122°20'0 0.0
2017-Oct-19 16:56N 47°36' W 122°20'0 0.0
2017-Oct-19 16:30N 47°36' W 122°20'2 3.8
2017-Oct-19 16:01N 47°35' W 122°23'0 0.0
2017-Oct-19 15:30N 47°35' W 122°23'0 0.0
2017-Oct-19 15:00N 47°35' W 122°23'1 2.0
2017-Oct-19 14:31N 47°36' W 122°22'1 2.4
2017-Oct-19 14:00N 47°36' W 122°20'0 0.0
2017-Oct-19 13:24N 47°36' W 122°20'1 3.2
2017-Oct-19 13:01N 47°36' W 122°22'1 2.6
2017-Oct-19 12:31N 47°36' W 122°20'0 0.0
2017-Oct-19 12:00N 47°36' W 122°20'0 0.0
2017-Oct-19 11:30N 47°36' W 122°20'0 0.0
2017-Oct-19 11:00N 47°36' W 122°20'0 0.0
2017-Oct-19 10:30N 47°36' W 122°20'0 0.0
2017-Oct-19 10:00N 47°36' W 122°20'0 0.0
2017-Oct-19 09:30N 47°36' W 122°20'0 0.0
2017-Oct-19 09:00N 47°36' W 122°20'0 0.0
2017-Oct-19 08:30N 47°36' W 122°20'0 0.0
2017-Oct-19 07:51N 47°36' W 122°20'0 0.0
2017-Oct-19 07:24N 47°36' W 122°20'0 0.0
2017-Oct-19 07:00N 47°36' W 122°20'0 0.0
2017-Oct-19 06:30N 47°36' W 122°20'0 0.0
2017-Oct-19 05:58N 47°36' W 122°20'0 0.0
2017-Oct-19 05:28N 47°36' W 122°20'0 0.0
2017-Oct-19 04:12N 47°36' W 122°20'0 0.0
2017-Oct-19 03:58N 47°36' W 122°20'0 0.0
2017-Oct-19 03:28N 47°36' W 122°20'0 0.0
2017-Oct-19 02:45N 47°36' W 122°20'0 0.0
2017-Oct-19 02:25N 47°36' W 122°20'2 4.4
2017-Oct-19 02:00N 47°35' W 122°23'1 1.5
2017-Oct-19 01:30N 47°36' W 122°22'1 1.7
2017-Oct-19 00:53N 47°36' W 122°20'1 1.9
2017-Oct-19 00:31N 47°36' W 122°21'1 2.3
2017-Oct-19 00:00N 47°35' W 122°23'1 1.9
2017-Oct-18 23:31N 47°36' W 122°22'1 1.4
2017-Oct-18 22:53N 47°36' W 122°20'0 0.5
2017-Oct-18 22:31N 47°36' W 122°21'2 3.3
2017-Oct-18 22:00N 47°35' W 122°23'2 3.0
2017-Oct-18 21:24N 47°36' W 122°20'2 4.6
2017-Oct-18 21:00N 47°35' W 122°23'2 2.9
2017-Oct-18 20:23N 47°36' W 122°20'2 4.9
2017-Oct-18 20:00N 47°35' W 122°23'2 3.2
2017-Oct-18 19:27N 47°36' W 122°20'2 4.2
2017-Oct-18 19:00N 47°35' W 122°23'2 3.6
2017-Oct-18 18:30N 47°36' W 122°20'2 3.6
2017-Oct-18 18:00N 47°35' W 122°23'2 3.6
2017-Oct-18 17:30N 47°36' W 122°20'0 0.0
2017-Oct-18 16:47N 47°36' W 122°20'0 0.0
2017-Oct-18 16:24N 47°36' W 122°20'2 4.6
2017-Oct-18 16:01N 47°35' W 122°23'0 0.0
2017-Oct-18 15:30N 47°35' W 122°23'0 0.0
2017-Oct-18 15:00N 47°35' W 122°23'2 1.8
2017-Oct-18 14:01N 47°36' W 122°20'0 0.0
2017-Oct-18 13:29N 47°36' W 122°20'1 1.2
2017-Oct-18 13:01N 47°36' W 122°21'1 1.2
2017-Oct-18 12:29N 47°36' W 122°20'0 0.0
2017-Oct-18 12:00N 47°36' W 122°20'0 0.0
2017-Oct-18 11:30N 47°36' W 122°20'0 0.0
2017-Oct-18 11:00N 47°36' W 122°20'0 0.0
2017-Oct-18 10:30N 47°36' W 122°20'0 0.0
2017-Oct-18 09:59N 47°36' W 122°20'0 0.0
2017-Oct-18 09:29N 47°36' W 122°20'0 0.0
2017-Oct-18 08:59N 47°36' W 122°20'0 0.0
2017-Oct-18 08:27N 47°36' W 122°20'0 0.0
2017-Oct-18 08:00N 47°36' W 122°20'0 0.0
2017-Oct-18 07:29N 47°36' W 122°20'0 0.0
2017-Oct-18 06:59N 47°36' W 122°20'0 0.0
2017-Oct-18 06:29N 47°36' W 122°20'0 0.0
2017-Oct-18 05:59N 47°36' W 122°20'0 0.0
2017-Oct-18 05:29N 47°36' W 122°20'0 0.0
2017-Oct-18 04:59N 47°36' W 122°20'0 0.0
2017-Oct-18 04:26N 47°36' W 122°20'0 0.0
2017-Oct-18 03:56N 47°36' W 122°20'0 0.0
2017-Oct-18 03:30N 47°36' W 122°20'0 0.0
2017-Oct-18 02:33N 47°36' W 122°20'0 0.4
2017-Oct-18 02:26N 47°36' W 122°20'2 4.2
2017-Oct-18 02:01N 47°35' W 122°23'1 1.1
2017-Oct-18 01:31N 47°36' W 122°22'1 2.3
2017-Oct-18 00:56N 47°36' W 122°20'1 2.3
2017-Oct-18 00:31N 47°36' W 122°22'1 1.6
2017-Oct-18 00:00N 47°35' W 122°23'1 1.7
2017-Oct-17 23:31N 47°36' W 122°22'1 1.9
2017-Oct-17 23:00N 47°36' W 122°20'1 2.4
2017-Oct-17 22:31N 47°36' W 122°22'1 1.2
2017-Oct-17 22:00N 47°35' W 122°23'2 3.6
2017-Oct-17 21:30N 47°36' W 122°20'2 3.7
2017-Oct-17 21:00N 47°35' W 122°23'2 3.5
2017-Oct-17 20:29N 47°36' W 122°20'2 3.8
2017-Oct-17 20:00N 47°35' W 122°23'2 3.4
2017-Oct-17 19:29N 47°36' W 122°20'2 3.9
2017-Oct-17 19:00N 47°35' W 122°23'2 3.6
2017-Oct-17 18:30N 47°36' W 122°20'2 3.6
2017-Oct-17 18:00N 47°35' W 122°23'2 3.6
2017-Oct-17 17:30N 47°36' W 122°20'1 2.1
2017-Oct-17 17:00N 47°35' W 122°21'0 0.5
2017-Oct-17 16:31N 47°36' W 122°21'1 2.1
2017-Oct-17 16:01N 47°35' W 122°23'0 0.0
2017-Oct-17 15:30N 47°35' W 122°23'0 0.0
2017-Oct-17 15:00N 47°35' W 122°23'1 1.8
2017-Oct-17 14:31N 47°36' W 122°22'1 2.6
2017-Oct-17 14:00N 47°36' W 122°20'0 0.0
2017-Oct-17 13:30N 47°36' W 122°20'0 0.0
2017-Oct-17 13:01N 47°36' W 122°20'0 0.3
2017-Oct-17 12:29N 47°36' W 122°20'0 0.0
2017-Oct-17 11:56N 47°36' W 122°20'0 0.0
2017-Oct-17 11:28N 47°36' W 122°20'0 0.0
2017-Oct-17 10:58N 47°36' W 122°20'0 0.0
2017-Oct-17 10:28N 47°36' W 122°20'0 0.0
2017-Oct-17 09:58N 47°36' W 122°20'0 0.0
2017-Oct-17 09:28N 47°36' W 122°20'0 0.0
2017-Oct-17 08:58N 47°36' W 122°20'0 0.0
2017-Oct-17 08:29N 47°36' W 122°20'0 0.0
2017-Oct-17 07:58N 47°36' W 122°20'0 0.0
2017-Oct-17 07:16N 47°36' W 122°20'0 0.0
2017-Oct-17 06:52N 47°36' W 122°20'0 0.0
2017-Oct-17 06:22N 47°36' W 122°20'0 0.0
2017-Oct-17 05:59N 47°36' W 122°20'0 0.0
2017-Oct-17 05:28N 47°36' W 122°20'0 0.0
2017-Oct-17 04:52N 47°36' W 122°20'0 0.0
2017-Oct-17 04:14N 47°36' W 122°20'0 0.0
2017-Oct-17 04:00N 47°36' W 122°20'0 0.0
2017-Oct-17 03:13N 47°36' W 122°20'0 0.0
2017-Oct-17 02:59N 47°36' W 122°20'0 0.0
2017-Oct-17 02:28N 47°36' W 122°20'2 3.9
2017-Oct-17 02:01N 47°35' W 122°23'0 1.0
2017-Oct-17 01:31N 47°36' W 122°22'1 2.6
2017-Oct-17 00:59N 47°36' W 122°20'1 2.6
2017-Oct-17 00:30N 47°36' W 122°22'1 1.3
2017-Oct-17 00:00N 47°35' W 122°23'1 2.4
2017-Oct-16 23:30N 47°36' W 122°21'1 1.3
2017-Oct-16 23:00N 47°36' W 122°20'0 0.1
2017-Oct-16 22:30N 47°36' W 122°20'2 3.6
2017-Oct-16 22:00N 47°35' W 122°23'2 3.6
2017-Oct-16 21:30N 47°36' W 122°20'2 3.6
2017-Oct-16 21:00N 47°35' W 122°23'2 3.6
2017-Oct-16 20:30N 47°36' W 122°20'2 3.7
2017-Oct-16 20:00N 47°35' W 122°23'2 3.6
2017-Oct-16 19:30N 47°36' W 122°20'2 3.7
2017-Oct-16 19:01N 47°35' W 122°23'2 3.6
2017-Oct-16 18:30N 47°36' W 122°20'2 3.7
2017-Oct-16 18:00N 47°35' W 122°23'2 3.4
2017-Oct-16 17:29N 47°36' W 122°20'0 0.0
2017-Oct-16 16:56N 47°36' W 122°20'0 0.0
2017-Oct-16 16:26N 47°36' W 122°20'2 4.3
2017-Oct-16 16:01N 47°35' W 122°23'0 0.0
2017-Oct-16 15:31N 47°35' W 122°23'0 0.0
2017-Oct-16 15:01N 47°35' W 122°23'0 0.7
2017-Oct-16 14:31N 47°36' W 122°23'2 1.5
2017-Oct-16 13:30N 47°36' W 122°20'0 0.0
2017-Oct-16 13:00N 47°36' W 122°20'0 0.3
2017-Oct-16 12:27N 47°36' W 122°20'0 0.0
2017-Oct-16 12:00N 47°36' W 122°20'0 0.0
2017-Oct-16 11:30N 47°36' W 122°20'0 0.0
2017-Oct-16 11:00N 47°36' W 122°20'0 0.0
2017-Oct-16 10:30N 47°36' W 122°20'0 0.0
2017-Oct-16 10:00N 47°36' W 122°20'0 0.0
2017-Oct-16 09:27N 47°36' W 122°20'0 0.0
2017-Oct-16 09:00N 47°36' W 122°20'0 0.0
2017-Oct-16 08:30N 47°36' W 122°20'0 0.0
2017-Oct-16 08:00N 47°36' W 122°20'0 0.0
2017-Oct-16 07:27N 47°36' W 122°20'0 0.0
2017-Oct-16 07:00N 47°36' W 122°20'0 0.0
2017-Oct-16 06:24N 47°36' W 122°20'0 0.0
2017-Oct-16 06:00N 47°36' W 122°20'0 0.0
2017-Oct-16 05:27N 47°36' W 122°20'0 0.0
2017-Oct-16 04:57N 47°36' W 122°20'0 0.0
2017-Oct-16 04:27N 47°36' W 122°20'0 0.0
2017-Oct-16 03:57N 47°36' W 122°20'0 0.0
2017-Oct-16 03:30N 47°36' W 122°20'2 3.7
2017-Oct-16 03:00N 47°35' W 122°23'2 3.0
2017-Oct-16 02:24N 47°36' W 122°20'2 4.7
2017-Oct-16 02:00N 47°35' W 122°23'2 3.6
2017-Oct-16 01:30N 47°36' W 122°20'2 3.6
2017-Oct-16 01:00N 47°35' W 122°23'2 3.3
2017-Oct-16 00:27N 47°36' W 122°20'2 4.1
2017-Oct-16 00:00N 47°35' W 122°23'2 3.5
2017-Oct-15 23:29N 47°36' W 122°20'2 3.8
2017-Oct-15 23:00N 47°35' W 122°23'2 3.6
2017-Oct-15 22:30N 47°36' W 122°20'2 3.7
2017-Oct-15 22:01N 47°35' W 122°23'2 2.6
2017-Oct-15 21:18N 47°36' W 122°20'2 6.3
2017-Oct-15 21:01N 47°35' W 122°23'2 3.6
2017-Oct-15 20:30N 47°36' W 122°20'2 3.7
2017-Oct-15 20:00N 47°35' W 122°23'2 3.6
2017-Oct-15 19:30N 47°36' W 122°20'2 3.7
2017-Oct-15 19:00N 47°35' W 122°23'2 2.4
2017-Oct-15 18:16N 47°36' W 122°20'2 7.1
2017-Oct-15 18:00N 47°35' W 122°23'2 3.7
2017-Oct-15 17:30N 47°36' W 122°20'2 3.6
2017-Oct-15 17:00N 47°35' W 122°23'2 2.6
2017-Oct-15 16:19N 47°36' W 122°20'2 5.9
2017-Oct-15 16:00N 47°35' W 122°23'2 3.6
2017-Oct-15 15:30N 47°36' W 122°20'0 0.3
2017-Oct-15 14:55N 47°36' W 122°20'0 0.0
2017-Oct-15 13:55N 47°36' W 122°20'0 0.0
2017-Oct-15 13:25N 47°36' W 122°20'0 0.0
2017-Oct-15 12:55N 47°36' W 122°20'0 0.0
2017-Oct-15 12:25N 47°36' W 122°20'0 0.0
2017-Oct-15 11:49N 47°36' W 122°20'0 0.0
2017-Oct-15 10:52N 47°36' W 122°20'0 0.0
2017-Oct-15 10:28N 47°36' W 122°20'0 0.0
2017-Oct-15 09:55N 47°36' W 122°20'0 0.0
2017-Oct-15 09:28N 47°36' W 122°20'0 0.0
2017-Oct-15 08:58N 47°36' W 122°20'0 0.0
2017-Oct-15 08:28N 47°36' W 122°20'0 0.0
2017-Oct-15 07:58N 47°36' W 122°20'0 0.0
2017-Oct-15 07:28N 47°36' W 122°20'0 0.0
2017-Oct-15 06:58N 47°36' W 122°20'0 0.0
2017-Oct-15 06:28N 47°36' W 122°20'2 4.0
2017-Oct-15 06:00N 47°35' W 122°23'2 3.0
2017-Oct-15 05:23N 47°36' W 122°20'2 4.8
2017-Oct-15 05:00N 47°35' W 122°23'2 2.7
2017-Oct-15 04:20N 47°36' W 122°20'2 5.7
2017-Oct-15 04:00N 47°35' W 122°23'2 2.8
2017-Oct-15 03:22N 47°36' W 122°20'2 5.1
2017-Oct-15 03:00N 47°35' W 122°23'2 3.6
2017-Oct-15 02:30N 47°36' W 122°20'2 3.7
2017-Oct-15 02:00N 47°35' W 122°23'2 2.8
2017-Oct-15 01:21N 47°36' W 122°20'2 5.2
2017-Oct-15 01:00N 47°35' W 122°23'2 3.6
2017-Oct-15 00:30N 47°36' W 122°20'2 3.7
2017-Oct-15 00:00N 47°35' W 122°23'2 3.5
2017-Oct-14 23:30N 47°36' W 122°20'2 3.7
2017-Oct-14 23:00N 47°35' W 122°23'2 3.6
2017-Oct-14 22:30N 47°36' W 122°20'2 3.6
2017-Oct-14 22:00N 47°35' W 122°23'2 3.6
2017-Oct-14 21:30N 47°36' W 122°20'2 3.6
2017-Oct-14 21:00N 47°35' W 122°23'2 3.6
2017-Oct-14 20:30N 47°36' W 122°20'2 3.7
2017-Oct-14 20:01N 47°35' W 122°23'2 3.6
2017-Oct-14 19:30N 47°36' W 122°20'2 3.6
2017-Oct-14 19:00N 47°35' W 122°23'2 3.6
2017-Oct-14 18:30N 47°36' W 122°20'2 3.7
2017-Oct-14 18:00N 47°35' W 122°23'2 3.6
2017-Oct-14 17:30N 47°36' W 122°20'2 3.6
2017-Oct-14 17:00N 47°35' W 122°23'2 3.7
2017-Oct-14 16:30N 47°36' W 122°20'2 3.7
2017-Oct-14 16:01N 47°35' W 122°23'2 3.6
2017-Oct-14 15:30N 47°36' W 122°20'0 0.4
2017-Oct-14 14:59N 47°36' W 122°20'0 0.0
2017-Oct-14 14:29N 47°36' W 122°20'0 0.0
2017-Oct-14 13:56N 47°36' W 122°20'0 0.0
2017-Oct-14 13:30N 47°36' W 122°20'0 0.0
2017-Oct-14 12:59N 47°36' W 122°20'0 0.0
2017-Oct-14 12:26N 47°36' W 122°20'0 0.0
2017-Oct-14 11:59N 47°36' W 122°20'0 0.0
2017-Oct-14 11:27N 47°36' W 122°20'0 0.0
2017-Oct-14 10:57N 47°36' W 122°20'0 0.0
2017-Oct-14 10:29N 47°36' W 122°20'0 0.0
2017-Oct-14 09:50N 47°36' W 122°20'0 0.0
2017-Oct-14 09:20N 47°36' W 122°20'0 0.0
2017-Oct-14 09:00N 47°36' W 122°20'0 0.0
2017-Oct-14 08:23N 47°36' W 122°20'0 0.0
2017-Oct-14 08:00N 47°36' W 122°20'0 0.0
2017-Oct-14 07:29N 47°36' W 122°20'0 0.0
2017-Oct-14 07:01N 47°36' W 122°20'0 0.0
2017-Oct-14 06:29N 47°36' W 122°20'2 3.8
2017-Oct-14 06:00N 47°35' W 122°23'2 3.6
2017-Oct-14 05:30N 47°36' W 122°20'2 3.7
2017-Oct-14 05:00N 47°35' W 122°23'2 3.1
2017-Oct-14 04:25N 47°36' W 122°20'2 4.3
2017-Oct-14 04:00N 47°35' W 122°23'2 2.9
2017-Oct-14 03:22N 47°36' W 122°20'2 5.0
2017-Oct-14 03:00N 47°35' W 122°23'2 3.1
2017-Oct-14 02:26N 47°36' W 122°20'2 4.3
2017-Oct-14 02:00N 47°35' W 122°23'0 0.5
2017-Oct-14 01:30N 47°35' W 122°22'2 2.6
2017-Oct-14 00:55N 47°36' W 122°20'0 0.1
2017-Oct-14 00:28N 47°36' W 122°20'2 3.9
2017-Oct-14 00:00N 47°35' W 122°23'1 1.0
2017-Oct-13 23:30N 47°36' W 122°22'1 2.7
2017-Oct-13 23:00N 47°36' W 122°20'0 0.1
2017-Oct-13 22:31N 47°36' W 122°20'2 3.6
2017-Oct-13 22:00N 47°35' W 122°23'2 3.6
2017-Oct-13 21:30N 47°36' W 122°20'2 3.7
2017-Oct-13 21:00N 47°35' W 122°23'2 3.6
2017-Oct-13 20:30N 47°36' W 122°20'2 3.7
2017-Oct-13 20:00N 47°35' W 122°23'2 3.6
2017-Oct-13 19:30N 47°36' W 122°20'2 3.7
2017-Oct-13 19:00N 47°35' W 122°23'2 3.6
2017-Oct-13 18:30N 47°36' W 122°20'2 3.6
2017-Oct-13 18:00N 47°35' W 122°23'2 3.6
2017-Oct-13 17:30N 47°36' W 122°20'1 2.1
2017-Oct-13 17:00N 47°35' W 122°21'0 0.4
2017-Oct-13 16:31N 47°35' W 122°21'1 1.3
2017-Oct-13 16:01N 47°36' W 122°22'0 1.0
2017-Oct-13 15:30N 47°35' W 122°23'0 0.0
2017-Oct-13 15:00N 47°35' W 122°23'1 1.4
2017-Oct-13 14:30N 47°36' W 122°22'1 2.4
2017-Oct-13 14:01N 47°36' W 122°20'0 0.0
2017-Oct-13 13:30N 47°36' W 122°20'0 0.3
2017-Oct-13 13:01N 47°36' W 122°21'0 0.5
2017-Oct-13 12:29N 47°36' W 122°20'0 0.0
2017-Oct-13 11:59N 47°36' W 122°20'0 0.0
2017-Oct-13 11:28N 47°36' W 122°20'0 0.0
2017-Oct-13 10:59N 47°36' W 122°20'0 0.0
2017-Oct-13 10:29N 47°36' W 122°20'0 0.0
2017-Oct-13 09:59N 47°36' W 122°20'0 0.0
2017-Oct-13 09:29N 47°36' W 122°20'0 0.0
2017-Oct-13 08:55N 47°36' W 122°20'0 0.0
2017-Oct-13 08:28N 47°36' W 122°20'0 0.0
2017-Oct-13 07:58N 47°36' W 122°20'0 0.0
2017-Oct-13 07:29N 47°36' W 122°20'0 0.0
2017-Oct-13 06:58N 47°36' W 122°20'0 0.0
2017-Oct-13 06:28N 47°36' W 122°20'0 0.0
2017-Oct-13 05:59N 47°36' W 122°20'0 0.0
2017-Oct-13 05:29N 47°36' W 122°20'0 0.0
2017-Oct-13 04:58N 47°36' W 122°20'0 0.0
2017-Oct-13 04:28N 47°36' W 122°20'0 0.0
2017-Oct-13 03:58N 47°36' W 122°20'0 0.0
2017-Oct-13 03:29N 47°36' W 122°20'0 0.0
2017-Oct-13 02:59N 47°36' W 122°20'0 0.0
2017-Oct-13 02:29N 47°36' W 122°20'2 3.9
2017-Oct-13 02:00N 47°35' W 122°23'1 2.2
2017-Oct-13 01:31N 47°36' W 122°21'1 1.5
2017-Oct-13 01:00N 47°36' W 122°20'1 2.4
2017-Oct-13 00:31N 47°36' W 122°22'1 1.4
2017-Oct-13 00:00N 47°35' W 122°23'1 1.0
2017-Oct-12 23:30N 47°36' W 122°22'1 2.6
2017-Oct-12 23:00N 47°36' W 122°20'0 0.4
2017-Oct-12 22:30N 47°36' W 122°21'2 3.2
2017-Oct-12 22:00N 47°35' W 122°23'2 3.6
2017-Oct-12 21:30N 47°36' W 122°20'2 3.7
2017-Oct-12 21:00N 47°35' W 122°23'2 3.6
2017-Oct-12 20:30N 47°36' W 122°20'2 3.7
2017-Oct-12 20:00N 47°35' W 122°23'2 3.6
2017-Oct-12 19:30N 47°36' W 122°20'2 3.7
2017-Oct-12 19:00N 47°35' W 122°23'2 3.6
2017-Oct-12 18:30N 47°36' W 122°20'2 3.7
2017-Oct-12 18:00N 47°35' W 122°23'2 3.6
2017-Oct-12 17:30N 47°36' W 122°20'0 0.0
2017-Oct-12 17:00N 47°36' W 122°20'0 0.0
2017-Oct-12 16:30N 47°36' W 122°20'2 3.7
2017-Oct-12 16:01N 47°35' W 122°23'0 0.0
2017-Oct-12 15:30N 47°35' W 122°23'0 0.0
2017-Oct-12 15:00N 47°35' W 122°23'1 2.1
2017-Oct-12 14:31N 47°36' W 122°22'1 1.8
2017-Oct-12 14:00N 47°36' W 122°20'0 0.0
2017-Oct-12 13:30N 47°36' W 122°20'0 0.1
2017-Oct-12 13:00N 47°36' W 122°20'0 0.4
2017-Oct-12 12:30N 47°36' W 122°20'0 0.0
2017-Oct-12 11:52N 47°36' W 122°20'0 0.0
2017-Oct-12 11:30N 47°36' W 122°20'0 0.0
2017-Oct-12 10:58N 47°36' W 122°20'0 0.0
2017-Oct-12 10:30N 47°36' W 122°20'0 0.0
2017-Oct-12 10:00N 47°36' W 122°20'0 0.0
2017-Oct-12 09:30N 47°36' W 122°20'0 0.0
2017-Oct-12 09:00N 47°36' W 122°20'0 0.0
2017-Oct-12 08:27N 47°36' W 122°20'0 0.0
2017-Oct-12 07:57N 47°36' W 122°20'0 0.0
2017-Oct-12 07:30N 47°36' W 122°20'0 0.0
2017-Oct-12 06:58N 47°36' W 122°20'0 0.0
2017-Oct-12 06:28N 47°36' W 122°20'0 0.0
2017-Oct-12 05:58N 47°36' W 122°20'0 0.0
2017-Oct-12 05:30N 47°36' W 122°20'0 0.0
2017-Oct-12 05:00N 47°36' W 122°20'0 0.0
2017-Oct-12 04:28N 47°36' W 122°20'0 0.0
2017-Oct-12 04:00N 47°36' W 122°20'0 0.0
2017-Oct-12 03:28N 47°36' W 122°20'0 0.0
2017-Oct-12 02:58N 47°36' W 122°20'0 0.0
2017-Oct-12 02:30N 47°36' W 122°20'2 3.7
2017-Oct-12 02:00N 47°35' W 122°23'1 1.4
2017-Oct-12 01:31N 47°36' W 122°22'1 2.2
2017-Oct-12 01:00N 47°36' W 122°20'1 1.6
2017-Oct-12 00:30N 47°36' W 122°21'1 2.1
2017-Oct-12 00:00N 47°35' W 122°23'1 2.0
2017-Oct-11 23:30N 47°36' W 122°21'1 1.9
2017-Oct-11 23:00N 47°36' W 122°20'0 0.9
2017-Oct-11 22:30N 47°36' W 122°21'1 2.8
2017-Oct-11 22:00N 47°35' W 122°23'2 3.6
2017-Oct-11 21:30N 47°36' W 122°20'2 3.7
2017-Oct-11 21:00N 47°35' W 122°23'2 3.5
2017-Oct-11 20:29N 47°36' W 122°20'2 3.8
2017-Oct-11 20:00N 47°35' W 122°23'2 3.7
2017-Oct-11 19:30N 47°36' W 122°20'2 3.7
2017-Oct-11 19:00N 47°35' W 122°23'2 3.6
2017-Oct-11 18:30N 47°36' W 122°20'2 3.7
2017-Oct-11 18:00N 47°35' W 122°23'2 3.6
2017-Oct-11 17:30N 47°36' W 122°20'0 0.0
2017-Oct-11 17:00N 47°36' W 122°20'2 0.1
2017-Oct-11 00:01N 47°35' W 122°23'2 3.3
2017-Oct-10 23:30N 47°36' W 122°21'0 0.3
2017-Oct-10 23:00N 47°36' W 122°20'1 1.7
2017-Oct-10 22:31N 47°36' W 122°22'1 2.0
2017-Oct-10 22:01N 47°35' W 122°23'2 3.6
2017-Oct-10 21:30N 47°36' W 122°20'2 3.7
2017-Oct-10 21:00N 47°35' W 122°23'2 3.6
2017-Oct-10 20:30N 47°36' W 122°20'2 3.7
2017-Oct-10 20:00N 47°35' W 122°23'2 3.6
2017-Oct-10 19:30N 47°36' W 122°20'2 3.6
2017-Oct-10 19:00N 47°35' W 122°23'2 3.6
2017-Oct-10 18:30N 47°36' W 122°20'2 3.7
2017-Oct-10 18:00N 47°35' W 122°23'2 3.6
2017-Oct-10 17:30N 47°36' W 122°20'0 0.0
2017-Oct-10 17:00N 47°36' W 122°20'1 1.8
2017-Oct-10 16:31N 47°36' W 122°21'1 2.1
2017-Oct-10 16:01N 47°35' W 122°23'  
Track history (hours):
 
Tides and Currents Weather Stations Pressure Air Temp Water Temp Dewpoint Dewpoint Depression Visibility Wind Speed Wind Dir Waves Ship Positions

Doc Maynard

Owner: King County Marine Division, Seattle, WA. More information available from US FCC via Universal Licensing System and Coast Guard Vessel Documentation Center.

Last reported at 2017-Oct-20 16:00 UTC. Time now 2017-Oct-20 16:18 UTC.
Position N 47°36' W 122°22'.

Length 31 m.

Type: Passenger vessel. MMSI: 338224000.

Date/timePositionNaut miles runAvg speedWind from/ knotsBaromVisibWave heightAir tempDewpointWater temp
2017-Oct-20 16:00N 47°36' W 122°22'1 1.8
2017-Oct-20 15:30N 47°35' W 122°23'0 0.0
2017-Oct-20 15:00N 47°35' W 122°23'2 1.8
2017-Oct-20 13:59N 47°36' W 122°20'0 0.0
2017-Oct-20 13:30N 47°36' W 122°20'0 0.0
2017-Oct-20 13:00N 47°36' W 122°20'0 0.3
2017-Oct-20 12:29N 47°36' W 122°20'0 0.0
2017-Oct-20 11:59N 47°36' W 122°20'0 0.0
2017-Oct-20 11:30N 47°36' W 122°20'0 0.0
2017-Oct-20 10:56N 47°36' W 122°20'0 0.0
2017-Oct-20 10:29N 47°36' W 122°20'0 0.0
2017-Oct-20 09:58N 47°36' W 122°20'0 0.0
2017-Oct-20 09:29N 47°36' W 122°20'0 0.0
2017-Oct-20 08:58N 47°36' W 122°20'0 0.0
2017-Oct-20 08:29N 47°36' W 122°20'0 0.0
2017-Oct-20 07:58N 47°36' W 122°20'0 0.0
2017-Oct-20 07:28N 47°36' W 122°20'0 0.0
2017-Oct-20 06:59N 47°36' W 122°20'0 0.0
2017-Oct-20 06:26N 47°36' W 122°20'0 0.0
2017-Oct-20 05:05N 47°36' W 122°20'0 0.0
2017-Oct-20 04:35N 47°36' W 122°20'0 0.1
2017-Oct-20 04:28N 47°36' W 122°20'0 0.0
2017-Oct-20 02:42N 47°36' W 122°20'0 0.0
2017-Oct-20 02:26N 47°36' W 122°20'2 4.3
2017-Oct-20 02:01N 47°35' W 122°23'1 2.8
2017-Oct-20 01:31N 47°36' W 122°21'1 0.9
2017-Oct-20 00:54N 47°36' W 122°20'1 3.2
2017-Oct-20 00:31N 47°36' W 122°22'1 1.2
2017-Oct-20 00:00N 47°35' W 122°23'1 2.3
2017-Oct-19 23:30N 47°36' W 122°21'1 1.2
2017-Oct-19 22:55N 47°36' W 122°20'0 0.1
2017-Oct-19 22:30N 47°36' W 122°20'2 3.6
2017-Oct-19 22:00N 47°35' W 122°23'2 3.5
2017-Oct-19 21:29N 47°36' W 122°20'2 3.8
2017-Oct-19 21:00N 47°35' W 122°23'2 3.2
2017-Oct-19 20:26N 47°36' W 122°20'2 4.3
2017-Oct-19 20:00N 47°35' W 122°23'2 3.6
2017-Oct-19 19:30N 47°36' W 122°20'2 3.6
2017-Oct-19 19:01N 47°35' W 122°23'2 3.6
2017-Oct-19 18:30N 47°36' W 122°20'2 3.7
2017-Oct-19 18:00N 47°35' W 122°23'2 3.6
2017-Oct-19 17:31N 47°36' W 122°20'0 0.0
2017-Oct-19 16:56N 47°36' W 122°20'0 0.0
2017-Oct-19 16:30N 47°36' W 122°20'2 3.8
2017-Oct-19 16:01N 47°35' W 122°23'0 0.0
2017-Oct-19 15:30N 47°35' W 122°23'0 0.0
2017-Oct-19 15:00N 47°35' W 122°23'1 2.0
2017-Oct-19 14:31N 47°36' W 122°22'1 2.4
2017-Oct-19 14:00N 47°36' W 122°20'0 0.0
2017-Oct-19 13:24N 47°36' W 122°20'1 3.2
2017-Oct-19 13:01N 47°36' W 122°22'1 2.6
2017-Oct-19 12:31N 47°36' W 122°20'0 0.0
2017-Oct-19 12:00N 47°36' W 122°20'0 0.0
2017-Oct-19 11:30N 47°36' W 122°20'0 0.0
2017-Oct-19 11:00N 47°36' W 122°20'0 0.0
2017-Oct-19 10:30N 47°36' W 122°20'0 0.0
2017-Oct-19 10:00N 47°36' W 122°20'0 0.0
2017-Oct-19 09:30N 47°36' W 122°20'0 0.0
2017-Oct-19 09:00N 47°36' W 122°20'0 0.0
2017-Oct-19 08:30N 47°36' W 122°20'0 0.0
2017-Oct-19 07:51N 47°36' W 122°20'0 0.0
2017-Oct-19 07:24N 47°36' W 122°20'0 0.0
2017-Oct-19 07:00N 47°36' W 122°20'0 0.0
2017-Oct-19 06:30N 47°36' W 122°20'0 0.0
2017-Oct-19 05:58N 47°36' W 122°20'0 0.0
2017-Oct-19 05:28N 47°36' W 122°20'0 0.0
2017-Oct-19 04:12N 47°36' W 122°20'0 0.0
2017-Oct-19 03:58N 47°36' W 122°20'0 0.0
2017-Oct-19 03:28N 47°36' W 122°20'0 0.0
2017-Oct-19 02:45N 47°36' W 122°20'0 0.0
2017-Oct-19 02:25N 47°36' W 122°20'2 4.4
2017-Oct-19 02:00N 47°35' W 122°23'1 1.5
2017-Oct-19 01:30N 47°36' W 122°22'1 1.7
2017-Oct-19 00:53N 47°36' W 122°20'1 1.9
2017-Oct-19 00:31N 47°36' W 122°21'1 2.3
2017-Oct-19 00:00N 47°35' W 122°23'1 1.9
2017-Oct-18 23:31N 47°36' W 122°22'1 1.4
2017-Oct-18 22:53N 47°36' W 122°20'0 0.5
2017-Oct-18 22:31N 47°36' W 122°21'2 3.3
2017-Oct-18 22:00N 47°35' W 122°23'2 3.0
2017-Oct-18 21:24N 47°36' W 122°20'2 4.6
2017-Oct-18 21:00N 47°35' W 122°23'2 2.9
2017-Oct-18 20:23N 47°36' W 122°20'2 4.9
2017-Oct-18 20:00N 47°35' W 122°23'2 3.2
2017-Oct-18 19:27N 47°36' W 122°20'2 4.2
2017-Oct-18 19:00N 47°35' W 122°23'2 3.6
2017-Oct-18 18:30N 47°36' W 122°20'2 3.6
2017-Oct-18 18:00N 47°35' W 122°23'2 3.6
2017-Oct-18 17:30N 47°36' W 122°20'0 0.0
2017-Oct-18 16:47N 47°36' W 122°20'0 0.0
2017-Oct-18 16:24N 47°36' W 122°20'2 4.6
2017-Oct-18 16:01N 47°35' W 122°23'0 0.0
2017-Oct-18 15:30N 47°35' W 122°23'0 0.0
2017-Oct-18 15:00N 47°35' W 122°23'2 1.8
2017-Oct-18 14:01N 47°36' W 122°20'0 0.0
2017-Oct-18 13:29N 47°36' W 122°20'1 1.2
2017-Oct-18 13:01N 47°36' W 122°21'1 1.2
2017-Oct-18 12:29N 47°36' W 122°20'0 0.0
2017-Oct-18 12:00N 47°36' W 122°20'0 0.0
2017-Oct-18 11:30N 47°36' W 122°20'0 0.0
2017-Oct-18 11:00N 47°36' W 122°20'0 0.0
2017-Oct-18 10:30N 47°36' W 122°20'0 0.0
2017-Oct-18 09:59N 47°36' W 122°20'0 0.0
2017-Oct-18 09:29N 47°36' W 122°20'0 0.0
2017-Oct-18 08:59N 47°36' W 122°20'0 0.0
2017-Oct-18 08:27N 47°36' W 122°20'0 0.0
2017-Oct-18 08:00N 47°36' W 122°20'0 0.0
2017-Oct-18 07:29N 47°36' W 122°20'0 0.0
2017-Oct-18 06:59N 47°36' W 122°20'0 0.0
2017-Oct-18 06:29N 47°36' W 122°20'0 0.0
2017-Oct-18 05:59N 47°36' W 122°20'0 0.0
2017-Oct-18 05:29N 47°36' W 122°20'0 0.0
2017-Oct-18 04:59N 47°36' W 122°20'0 0.0
2017-Oct-18 04:26N 47°36' W 122°20'0 0.0
2017-Oct-18 03:56N 47°36' W 122°20'0 0.0
2017-Oct-18 03:30N 47°36' W 122°20'0 0.0
2017-Oct-18 02:33N 47°36' W 122°20'0 0.4
2017-Oct-18 02:26N 47°36' W 122°20'2 4.2
2017-Oct-18 02:01N 47°35' W 122°23'1 1.1
2017-Oct-18 01:31N 47°36' W 122°22'1 2.3
2017-Oct-18 00:56N 47°36' W 122°20'1 2.3
2017-Oct-18 00:31N 47°36' W 122°22'1 1.6
2017-Oct-18 00:00N 47°35' W 122°23'1 1.7
2017-Oct-17 23:31N 47°36' W 122°22'1 1.9
2017-Oct-17 23:00N 47°36' W 122°20'1 2.4
2017-Oct-17 22:31N 47°36' W 122°22'1 1.2
2017-Oct-17 22:00N 47°35' W 122°23'2 3.6
2017-Oct-17 21:30N 47°36' W 122°20'2 3.7
2017-Oct-17 21:00N 47°35' W 122°23'2 3.5
2017-Oct-17 20:29N 47°36' W 122°20'2 3.8
2017-Oct-17 20:00N 47°35' W 122°23'2 3.4
2017-Oct-17 19:29N 47°36' W 122°20'2 3.9
2017-Oct-17 19:00N 47°35' W 122°23'2 3.6
2017-Oct-17 18:30N 47°36' W 122°20'2 3.6
2017-Oct-17 18:00N 47°35' W 122°23'2 3.6
2017-Oct-17 17:30N 47°36' W 122°20'1 2.1
2017-Oct-17 17:00N 47°35' W 122°21'0 0.5
2017-Oct-17 16:31N 47°36' W 122°21'1 2.1
2017-Oct-17 16:01N 47°35' W 122°23'0 0.0
2017-Oct-17 15:30N 47°35' W 122°23'0 0.0
2017-Oct-17 15:00N 47°35' W 122°23'1 1.8
2017-Oct-17 14:31N 47°36' W 122°22'1 2.6
2017-Oct-17 14:00N 47°36' W 122°20'0 0.0
2017-Oct-17 13:30N 47°36' W 122°20'0 0.0
2017-Oct-17 13:01N 47°36' W 122°20'0 0.3
2017-Oct-17 12:29N 47°36' W 122°20'0 0.0
2017-Oct-17 11:56N 47°36' W 122°20'0 0.0
2017-Oct-17 11:28N 47°36' W 122°20'0 0.0
2017-Oct-17 10:58N 47°36' W 122°20'0 0.0
2017-Oct-17 10:28N 47°36' W 122°20'0 0.0
2017-Oct-17 09:58N 47°36' W 122°20'0 0.0
2017-Oct-17 09:28N 47°36' W 122°20'0 0.0
2017-Oct-17 08:58N 47°36' W 122°20'0 0.0
2017-Oct-17 08:29N 47°36' W 122°20'0 0.0
2017-Oct-17 07:58N 47°36' W 122°20'0 0.0
2017-Oct-17 07:16N 47°36' W 122°20'0 0.0
2017-Oct-17 06:52N 47°36' W 122°20'0 0.0
2017-Oct-17 06:22N 47°36' W 122°20'0 0.0
2017-Oct-17 05:59N 47°36' W 122°20'0 0.0
2017-Oct-17 05:28N 47°36' W 122°20'0 0.0
2017-Oct-17 04:52N 47°36' W 122°20'0 0.0
2017-Oct-17 04:14N 47°36' W 122°20'0 0.0
2017-Oct-17 04:00N 47°36' W 122°20'0 0.0
2017-Oct-17 03:13N 47°36' W 122°20'0 0.0
2017-Oct-17 02:59N 47°36' W 122°20'0 0.0
2017-Oct-17 02:28N 47°36' W 122°20'2 3.9
2017-Oct-17 02:01N 47°35' W 122°23'0 1.0
2017-Oct-17 01:31N 47°36' W 122°22'1 2.6
2017-Oct-17 00:59N 47°36' W 122°20'1 2.6
2017-Oct-17 00:30N 47°36' W 122°22'1 1.3
2017-Oct-17 00:00N 47°35' W 122°23'1 2.4
2017-Oct-16 23:30N 47°36' W 122°21'1 1.3
2017-Oct-16 23:00N 47°36' W 122°20'0 0.1
2017-Oct-16 22:30N 47°36' W 122°20'2 3.6
2017-Oct-16 22:00N 47°35' W 122°23'2 3.6
2017-Oct-16 21:30N 47°36' W 122°20'2 3.6
2017-Oct-16 21:00N 47°35' W 122°23'2 3.6
2017-Oct-16 20:30N 47°36' W 122°20'2 3.7
2017-Oct-16 20:00N 47°35' W 122°23'2 3.6
2017-Oct-16 19:30N 47°36' W 122°20'2 3.7
2017-Oct-16 19:01N 47°35' W 122°23'2 3.6
2017-Oct-16 18:30N 47°36' W 122°20'2 3.7
2017-Oct-16 18:00N 47°35' W 122°23'2 3.4
2017-Oct-16 17:29N 47°36' W 122°20'0 0.0
2017-Oct-16 16:56N 47°36' W 122°20'0 0.0
2017-Oct-16 16:26N 47°36' W 122°20'2 4.3
2017-Oct-16 16:01N 47°35' W 122°23'0 0.0
2017-Oct-16 15:31N 47°35' W 122°23'0 0.0
2017-Oct-16 15:01N 47°35' W 122°23'0 0.7
2017-Oct-16 14:31N 47°36' W 122°23'2 1.5
2017-Oct-16 13:30N 47°36' W 122°20'0 0.0
2017-Oct-16 13:00N 47°36' W 122°20'0 0.3
2017-Oct-16 12:27N 47°36' W 122°20'0 0.0
2017-Oct-16 12:00N 47°36' W 122°20'0 0.0
2017-Oct-16 11:30N 47°36' W 122°20'0 0.0
2017-Oct-16 11:00N 47°36' W 122°20'0 0.0
2017-Oct-16 10:30N 47°36' W 122°20'0 0.0
2017-Oct-16 10:00N 47°36' W 122°20'0 0.0
2017-Oct-16 09:27N 47°36' W 122°20'0 0.0
2017-Oct-16 09:00N 47°36' W 122°20'0 0.0
2017-Oct-16 08:30N 47°36' W 122°20'0 0.0
2017-Oct-16 08:00N 47°36' W 122°20'0 0.0
2017-Oct-16 07:27N 47°36' W 122°20'0 0.0
2017-Oct-16 07:00N 47°36' W 122°20'0 0.0
2017-Oct-16 06:24N 47°36' W 122°20'0 0.0
2017-Oct-16 06:00N 47°36' W 122°20'0 0.0
2017-Oct-16 05:27N 47°36' W 122°20'0 0.0
2017-Oct-16 04:57N 47°36' W 122°20'0 0.0
2017-Oct-16 04:27N 47°36' W 122°20'0 0.0
2017-Oct-16 03:57N 47°36' W 122°20'0 0.0
2017-Oct-16 03:30N 47°36' W 122°20'2 3.7
2017-Oct-16 03:00N 47°35' W 122°23'2 3.0
2017-Oct-16 02:24N 47°36' W 122°20'2 4.7
2017-Oct-16 02:00N 47°35' W 122°23'2 3.6
2017-Oct-16 01:30N 47°36' W 122°20'2 3.6
2017-Oct-16 01:00N 47°35' W 122°23'2 3.3
2017-Oct-16 00:27N 47°36' W 122°20'2 4.1
2017-Oct-16 00:00N 47°35' W 122°23'2 3.5
2017-Oct-15 23:29N 47°36' W 122°20'2 3.8
2017-Oct-15 23:00N 47°35' W 122°23'2 3.6
2017-Oct-15 22:30N 47°36' W 122°20'2 3.7
2017-Oct-15 22:01N 47°35' W 122°23'2 2.6
2017-Oct-15 21:18N 47°36' W 122°20'2 6.3
2017-Oct-15 21:01N 47°35' W 122°23'2 3.6
2017-Oct-15 20:30N 47°36' W 122°20'2 3.7
2017-Oct-15 20:00N 47°35' W 122°23'2 3.6
2017-Oct-15 19:30N 47°36' W 122°20'2 3.7
2017-Oct-15 19:00N 47°35' W 122°23'2 2.4
2017-Oct-15 18:16N 47°36' W 122°20'2 7.1
2017-Oct-15 18:00N 47°35' W 122°23'2 3.7
2017-Oct-15 17:30N 47°36' W 122°20'2 3.6
2017-Oct-15 17:00N 47°35' W 122°23'2 2.6
2017-Oct-15 16:19N 47°36' W 122°20'2 5.9
2017-Oct-15 16:00N 47°35' W 122°23'2 3.6
2017-Oct-15 15:30N 47°36' W 122°20'0 0.3
2017-Oct-15 14:55N 47°36' W 122°20'0 0.0
2017-Oct-15 13:55N 47°36' W 122°20'0 0.0
2017-Oct-15 13:25N 47°36' W 122°20'0 0.0
2017-Oct-15 12:55N 47°36' W 122°20'0 0.0
2017-Oct-15 12:25N 47°36' W 122°20'0 0.0
2017-Oct-15 11:49N 47°36' W 122°20'0 0.0
2017-Oct-15 10:52N 47°36' W 122°20'0 0.0
2017-Oct-15 10:28N 47°36' W 122°20'0 0.0
2017-Oct-15 09:55N 47°36' W 122°20'0 0.0
2017-Oct-15 09:28N 47°36' W 122°20'0 0.0
2017-Oct-15 08:58N 47°36' W 122°20'0 0.0
2017-Oct-15 08:28N 47°36' W 122°20'0 0.0
2017-Oct-15 07:58N 47°36' W 122°20'0 0.0
2017-Oct-15 07:28N 47°36' W 122°20'0 0.0
2017-Oct-15 06:58N 47°36' W 122°20'0 0.0
2017-Oct-15 06:28N 47°36' W 122°20'2 4.0
2017-Oct-15 06:00N 47°35' W 122°23'2 3.0
2017-Oct-15 05:23N 47°36' W 122°20'2 4.8
2017-Oct-15 05:00N 47°35' W 122°23'2 2.7
2017-Oct-15 04:20N 47°36' W 122°20'2 5.7
2017-Oct-15 04:00N 47°35' W 122°23'2 2.8
2017-Oct-15 03:22N 47°36' W 122°20'2 5.1
2017-Oct-15 03:00N 47°35' W 122°23'2 3.6
2017-Oct-15 02:30N 47°36' W 122°20'2 3.7
2017-Oct-15 02:00N 47°35' W 122°23'2 2.8
2017-Oct-15 01:21N 47°36' W 122°20'2 5.2
2017-Oct-15 01:00N 47°35' W 122°23'2 3.6
2017-Oct-15 00:30N 47°36' W 122°20'2 3.7
2017-Oct-15 00:00N 47°35' W 122°23'2 3.5
2017-Oct-14 23:30N 47°36' W 122°20'2 3.7
2017-Oct-14 23:00N 47°35' W 122°23'2 3.6
2017-Oct-14 22:30N 47°36' W 122°20'2 3.6
2017-Oct-14 22:00N 47°35' W 122°23'2 3.6
2017-Oct-14 21:30N 47°36' W 122°20'2 3.6
2017-Oct-14 21:00N 47°35' W 122°23'2 3.6
2017-Oct-14 20:30N 47°36' W 122°20'2 3.7
2017-Oct-14 20:01N 47°35' W 122°23'2 3.6
2017-Oct-14 19:30N 47°36' W 122°20'2 3.6
2017-Oct-14 19:00N 47°35' W 122°23'2 3.6
2017-Oct-14 18:30N 47°36' W 122°20'2 3.7
2017-Oct-14 18:00N 47°35' W 122°23'2 3.6
2017-Oct-14 17:30N 47°36' W 122°20'2 3.6
2017-Oct-14 17:00N 47°35' W 122°23'2 3.7
2017-Oct-14 16:30N 47°36' W 122°20'2 3.7
2017-Oct-14 16:01N 47°35' W 122°23'2 3.6
2017-Oct-14 15:30N 47°36' W 122°20'0 0.4
2017-Oct-14 14:59N 47°36' W 122°20'0 0.0
2017-Oct-14 14:29N 47°36' W 122°20'0 0.0
2017-Oct-14 13:56N 47°36' W 122°20'0 0.0
2017-Oct-14 13:30N 47°36' W 122°20'0 0.0
2017-Oct-14 12:59N 47°36' W 122°20'0 0.0
2017-Oct-14 12:26N 47°36' W 122°20'0 0.0
2017-Oct-14 11:59N 47°36' W 122°20'0 0.0
2017-Oct-14 11:27N 47°36' W 122°20'0 0.0
2017-Oct-14 10:57N 47°36' W 122°20'0 0.0
2017-Oct-14 10:29N 47°36' W 122°20'0 0.0
2017-Oct-14 09:50N 47°36' W 122°20'0 0.0
2017-Oct-14 09:20N 47°36' W 122°20'0 0.0
2017-Oct-14 09:00N 47°36' W 122°20'0 0.0
2017-Oct-14 08:23N 47°36' W 122°20'0 0.0
2017-Oct-14 08:00N 47°36' W 122°20'0 0.0
2017-Oct-14 07:29N 47°36' W 122°20'0 0.0
2017-Oct-14 07:01N 47°36' W 122°20'0 0.0
2017-Oct-14 06:29N 47°36' W 122°20'2 3.8
2017-Oct-14 06:00N 47°35' W 122°23'2 3.6
2017-Oct-14 05:30N 47°36' W 122°20'2 3.7
2017-Oct-14 05:00N 47°35' W 122°23'2 3.1
2017-Oct-14 04:25N 47°36' W 122°20'2 4.3
2017-Oct-14 04:00N 47°35' W 122°23'2 2.9
2017-Oct-14 03:22N 47°36' W 122°20'2 5.0
2017-Oct-14 03:00N 47°35' W 122°23'2 3.1
2017-Oct-14 02:26N 47°36' W 122°20'2 4.3
2017-Oct-14 02:00N 47°35' W 122°23'0 0.5
2017-Oct-14 01:30N 47°35' W 122°22'2 2.6
2017-Oct-14 00:55N 47°36' W 122°20'0 0.1
2017-Oct-14 00:28N 47°36' W 122°20'2 3.9
2017-Oct-14 00:00N 47°35' W 122°23'1 1.0
2017-Oct-13 23:30N 47°36' W 122°22'1 2.7
2017-Oct-13 23:00N 47°36' W 122°20'0 0.1
2017-Oct-13 22:31N 47°36' W 122°20'2 3.6
2017-Oct-13 22:00N 47°35' W 122°23'2 3.6
2017-Oct-13 21:30N 47°36' W 122°20'2 3.7
2017-Oct-13 21:00N 47°35' W 122°23'2 3.6
2017-Oct-13 20:30N 47°36' W 122°20'2 3.7
2017-Oct-13 20:00N 47°35' W 122°23'2 3.6
2017-Oct-13 19:30N 47°36' W 122°20'2 3.7
2017-Oct-13 19:00N 47°35' W 122°23'2 3.6
2017-Oct-13 18:30N 47°36' W 122°20'2 3.6
2017-Oct-13 18:00N 47°35' W 122°23'2 3.6
2017-Oct-13 17:30N 47°36' W 122°20'1 2.1
2017-Oct-13 17:00N 47°35' W 122°21'0 0.4
2017-Oct-13 16:31N 47°35' W 122°21'1 1.3
2017-Oct-13 16:01N 47°36' W 122°22'0 1.0
2017-Oct-13 15:30N 47°35' W 122°23'0 0.0
2017-Oct-13 15:00N 47°35' W 122°23'1 1.4
2017-Oct-13 14:30N 47°36' W 122°22'1 2.4
2017-Oct-13 14:01N 47°36' W 122°20'0 0.0
2017-Oct-13 13:30N 47°36' W 122°20'0 0.3
2017-Oct-13 13:01N 47°36' W 122°21'0 0.5
2017-Oct-13 12:29N 47°36' W 122°20'0 0.0
2017-Oct-13 11:59N 47°36' W 122°20'0 0.0
2017-Oct-13 11:28N 47°36' W 122°20'0 0.0
2017-Oct-13 10:59N 47°36' W 122°20'0 0.0
2017-Oct-13 10:29N 47°36' W 122°20'0 0.0
2017-Oct-13 09:59N 47°36' W 122°20'0 0.0
2017-Oct-13 09:29N 47°36' W 122°20'0 0.0
2017-Oct-13 08:55N 47°36' W 122°20'0 0.0
2017-Oct-13 08:28N 47°36' W 122°20'0 0.0
2017-Oct-13 07:58N 47°36' W 122°20'0 0.0
2017-Oct-13 07:29N 47°36' W 122°20'0 0.0
2017-Oct-13 06:58N 47°36' W 122°20'0 0.0
2017-Oct-13 06:28N 47°36' W 122°20'0 0.0
2017-Oct-13 05:59N 47°36' W 122°20'0 0.0
2017-Oct-13 05:29N 47°36' W 122°20'0 0.0
2017-Oct-13 04:58N 47°36' W 122°20'0 0.0
2017-Oct-13 04:28N 47°36' W 122°20'0 0.0
2017-Oct-13 03:58N 47°36' W 122°20'0 0.0
2017-Oct-13 03:29N 47°36' W 122°20'0 0.0
2017-Oct-13 02:59N 47°36' W 122°20'0 0.0
2017-Oct-13 02:29N 47°36' W 122°20'2 3.9
2017-Oct-13 02:00N 47°35' W 122°23'1 2.2
2017-Oct-13 01:31N 47°36' W 122°21'1 1.5
2017-Oct-13 01:00N 47°36' W 122°20'1 2.4
2017-Oct-13 00:31N 47°36' W 122°22'1 1.4
2017-Oct-13 00:00N 47°35' W 122°23'1 1.0
2017-Oct-12 23:30N 47°36' W 122°22'1 2.6
2017-Oct-12 23:00N 47°36' W 122°20'0 0.4
2017-Oct-12 22:30N 47°36' W 122°21'2 3.2
2017-Oct-12 22:00N 47°35' W 122°23'2 3.6
2017-Oct-12 21:30N 47°36' W 122°20'2 3.7
2017-Oct-12 21:00N 47°35' W 122°23'2 3.6
2017-Oct-12 20:30N 47°36' W 122°20'2 3.7
2017-Oct-12 20:00N 47°35' W 122°23'2 3.6
2017-Oct-12 19:30N 47°36' W 122°20'2 3.7
2017-Oct-12 19:00N 47°35' W 122°23'2 3.6
2017-Oct-12 18:30N 47°36' W 122°20'2 3.7
2017-Oct-12 18:00N 47°35' W 122°23'2 3.6
2017-Oct-12 17:30N 47°36' W 122°20'0 0.0
2017-Oct-12 17:00N 47°36' W 122°20'0 0.0
2017-Oct-12 16:30N 47°36' W 122°20'2 3.7
2017-Oct-12 16:01N 47°35' W 122°23'0 0.0
2017-Oct-12 15:30N 47°35' W 122°23'0 0.0
2017-Oct-12 15:00N 47°35' W 122°23'1 2.1
2017-Oct-12 14:31N 47°36' W 122°22'1 1.8
2017-Oct-12 14:00N 47°36' W 122°20'0 0.0
2017-Oct-12 13:30N 47°36' W 122°20'0 0.1
2017-Oct-12 13:00N 47°36' W 122°20'0 0.4
2017-Oct-12 12:30N 47°36' W 122°20'0 0.0
2017-Oct-12 11:52N 47°36' W 122°20'0 0.0
2017-Oct-12 11:30N 47°36' W 122°20'0 0.0
2017-Oct-12 10:58N 47°36' W 122°20'0 0.0
2017-Oct-12 10:30N 47°36' W 122°20'0 0.0
2017-Oct-12 10:00N 47°36' W 122°20'0 0.0
2017-Oct-12 09:30N 47°36' W 122°20'0 0.0
2017-Oct-12 09:00N 47°36' W 122°20'0 0.0
2017-Oct-12 08:27N 47°36' W 122°20'0 0.0
2017-Oct-12 07:57N 47°36' W 122°20'0 0.0
2017-Oct-12 07:30N 47°36' W 122°20'0 0.0
2017-Oct-12 06:58N 47°36' W 122°20'0 0.0
2017-Oct-12 06:28N 47°36' W 122°20'0 0.0
2017-Oct-12 05:58N 47°36' W 122°20'0 0.0
2017-Oct-12 05:30N 47°36' W 122°20'0 0.0
2017-Oct-12 05:00N 47°36' W 122°20'0 0.0
2017-Oct-12 04:28N 47°36' W 122°20'0 0.0
2017-Oct-12 04:00N 47°36' W 122°20'0 0.0
2017-Oct-12 03:28N 47°36' W 122°20'0 0.0
2017-Oct-12 02:58N 47°36' W 122°20'0 0.0
2017-Oct-12 02:30N 47°36' W 122°20'2 3.7
2017-Oct-12 02:00N 47°35' W 122°23'1 1.4
2017-Oct-12 01:31N 47°36' W 122°22'1 2.2
2017-Oct-12 01:00N 47°36' W 122°20'1 1.6
2017-Oct-12 00:30N 47°36' W 122°21'1 2.1
2017-Oct-12 00:00N 47°35' W 122°23'1 2.0
2017-Oct-11 23:30N 47°36' W 122°21'1 1.9
2017-Oct-11 23:00N 47°36' W 122°20'0 0.9
2017-Oct-11 22:30N 47°36' W 122°21'1 2.8
2017-Oct-11 22:00N 47°35' W 122°23'2 3.6
2017-Oct-11 21:30N 47°36' W 122°20'2 3.7
2017-Oct-11 21:00N 47°35' W 122°23'2 3.5
2017-Oct-11 20:29N 47°36' W 122°20'2 3.8
2017-Oct-11 20:00N 47°35' W 122°23'2 3.7
2017-Oct-11 19:30N 47°36' W 122°20'2 3.7
2017-Oct-11 19:00N 47°35' W 122°23'2 3.6
2017-Oct-11 18:30N 47°36' W 122°20'2 3.7
2017-Oct-11 18:00N 47°35' W 122°23'2 3.6
2017-Oct-11 17:30N 47°36' W 122°20'0 0.0
2017-Oct-11 17:00N 47°36' W 122°20'2 0.1
2017-Oct-11 00:01N 47°35' W 122°23'2 3.3
2017-Oct-10 23:30N 47°36' W 122°21'0 0.3
2017-Oct-10 23:00N 47°36' W 122°20'1 1.7
2017-Oct-10 22:31N 47°36' W 122°22'1 2.0
2017-Oct-10 22:01N 47°35' W 122°23'2 3.6
2017-Oct-10 21:30N 47°36' W 122°20'2 3.7
2017-Oct-10 21:00N 47°35' W 122°23'2 3.6
2017-Oct-10 20:30N 47°36' W 122°20'2 3.7
2017-Oct-10 20:00N 47°35' W 122°23'2 3.6
2017-Oct-10 19:30N 47°36' W 122°20'2 3.6
2017-Oct-10 19:00N 47°35' W 122°23'2 3.6
2017-Oct-10 18:30N 47°36' W 122°20'2 3.7
2017-Oct-10 18:00N 47°35' W 122°23'2 3.6
2017-Oct-10 17:30N 47°36' W 122°20'0 0.0
2017-Oct-10 17:00N 47°36' W 122°20'1 1.8
2017-Oct-10 16:31N 47°36' W 122°21'1 2.1
2017-Oct-10 16:01N 47°35' W 122°23'  

Dump ship's entire track history